PWSweather.com
Personal Weather Stations
Station Observations
STEFBZH56
PontScorff, PontScorffFR

PontScorffPontScorffFR

Lat: 47.831518, Lon: -3.4222200000000385

Elevation: 141

Station Type: Oregon WMR200

http://www.meteo-pontscorff.fr

High Low Average
Temperature 70.9°F21.6°C 55.6°F13.1°C 61.4°F16.3°C
Dew Point 61.2°F16.2°C 55.0°F12.8°C 58.2°F14.6°C
Winds 8.2 mph 13.2 kmh 0.7 mph 1.1 kmh 4.0 mph SW6.4 kmh SW
Wind Gusts 20.8 mph33.5 kmh -- 8.0 mph12.9 kmh
Humidity 98% 67% 90%
Pressure 30.04 in1017.3 mb 29.80 in1009.1 mb -
Precipitation 0.00 in0.0 mm - -
Hour Temp Dew Point Humidity Winds Wind Gusts Pressure Precip Precip Rate Daily Precip Total
12:00 AM 56.8°F13.8°C 56.3°F13.5°C 98% 2.8 mph W4.5 kmh W 4.5 mph7.2 kmh 29.98 in1015.2 mb 0.00 in0.0 mm 0.00 in0.0 mm 0.00 in0.0 mm
12:05 AM 56.8°F13.8°C 56.3°F13.5°C 98% 2.9 mph W4.7 kmh W 5.6 mph9.0 kmh 29.98 in1015.2 mb 0.00 in0.0 mm 0.00 in0.0 mm 0.00 in0.0 mm
12:10 AM 56.7°F13.7°C 56.2°F13.4°C 98% 3.7 mph WNW6.0 kmh WNW 5.8 mph9.3 kmh 29.98 in1015.2 mb 0.00 in0.0 mm 0.00 in0.0 mm 0.00 in0.0 mm
12:15 AM 56.7°F13.7°C 56.1°F13.4°C 98% 3.2 mph WSW5.1 kmh WSW 5.4 mph8.7 kmh 29.98 in1015.2 mb 0.00 in0.0 mm 0.00 in0.0 mm 0.00 in0.0 mm
12:20 AM 56.6°F13.7°C 56.0°F13.3°C 98% 3.7 mph WSW6.0 kmh WSW 6.7 mph10.8 kmh 29.98 in1015.2 mb 0.00 in0.0 mm 0.00 in0.0 mm 0.00 in0.0 mm
12:25 AM 56.5°F13.6°C 55.9°F13.3°C 98% 3.2 mph WSW5.1 kmh WSW 4.9 mph7.9 kmh 29.98 in1015.2 mb 0.00 in0.0 mm 0.00 in0.0 mm 0.00 in0.0 mm
12:30 AM 56.4°F13.6°C 55.9°F13.3°C 98% 2.8 mph WSW4.5 kmh WSW 4.9 mph7.9 kmh 29.98 in1015.2 mb 0.00 in0.0 mm 0.00 in0.0 mm 0.00 in0.0 mm
12:35 AM 56.3°F13.5°C 55.8°F13.2°C 98% 3.5 mph WSW5.6 kmh WSW 7.6 mph12.2 kmh 30.00 in1015.9 mb 0.00 in0.0 mm 0.00 in0.0 mm 0.00 in0.0 mm
12:40 AM 56.3°F13.5°C 55.7°F13.2°C 98% 3.5 mph WSW5.6 kmh WSW 5.6 mph9.0 kmh 30.01 in1016.3 mb 0.00 in0.0 mm 0.00 in0.0 mm 0.00 in0.0 mm
12:45 AM 56.3°F13.5°C 55.7°F13.2°C 98% 3.0 mph WSW4.8 kmh WSW 5.8 mph9.3 kmh 30.01 in1016.3 mb 0.00 in0.0 mm 0.00 in0.0 mm 0.00 in0.0 mm
12:50 AM 56.2°F13.4°C 55.6°F13.1°C 98% 2.8 mph WNW4.5 kmh WNW 4.5 mph7.2 kmh 29.99 in1015.6 mb 0.00 in0.0 mm 0.00 in0.0 mm 0.00 in0.0 mm
12:55 AM 56.1°F13.4°C 55.6°F13.1°C 98% 3.4 mph W5.5 kmh W 7.8 mph12.6 kmh 29.98 in1015.2 mb 0.00 in0.0 mm 0.00 in0.0 mm 0.00 in0.0 mm
01:00 AM 56.1°F13.4°C 55.6°F13.1°C 98% 3.4 mph WSW5.5 kmh WSW 6.5 mph10.5 kmh 29.98 in1015.2 mb 0.00 in0.0 mm 0.00 in0.0 mm 0.00 in0.0 mm
01:05 AM 56.1°F13.4°C 55.6°F13.1°C 98% 3.1 mph W5.0 kmh W 4.9 mph7.9 kmh 29.98 in1015.2 mb 0.00 in0.0 mm 0.00 in0.0 mm 0.00 in0.0 mm
01:10 AM 56.2°F13.4°C 55.7°F13.2°C 98% 3.7 mph WSW6.0 kmh WSW 6.3 mph10.1 kmh 29.98 in1015.2 mb 0.00 in0.0 mm 0.00 in0.0 mm 0.00 in0.0 mm
01:15 AM 56.3°F13.5°C 55.7°F13.2°C 98% 2.8 mph WSW4.5 kmh WSW 5.4 mph8.7 kmh 29.98 in1015.2 mb 0.00 in0.0 mm 0.00 in0.0 mm 0.00 in0.0 mm
01:20 AM 56.2°F13.4°C 55.7°F13.2°C 98% 3.0 mph SW4.8 kmh SW 6.3 mph10.1 kmh 29.98 in1015.2 mb 0.00 in0.0 mm 0.00 in0.0 mm 0.00 in0.0 mm
01:25 AM 56.3°F13.5°C 55.7°F13.2°C 98% 2.9 mph W4.7 kmh W 5.6 mph9.0 kmh 29.98 in1015.2 mb 0.00 in0.0 mm 0.00 in0.0 mm 0.00 in0.0 mm
01:30 AM 56.1°F13.4°C 55.6°F13.1°C 98% 2.4 mph W3.9 kmh W 4.5 mph7.2 kmh 29.98 in1015.2 mb 0.00 in0.0 mm 0.00 in0.0 mm 0.00 in0.0 mm
01:35 AM 56.0°F13.3°C 55.4°F13.0°C 98% 2.8 mph W4.5 kmh W 4.9 mph7.9 kmh 29.98 in1015.2 mb 0.00 in0.0 mm 0.00 in0.0 mm 0.00 in0.0 mm
01:40 AM 55.9°F13.3°C 55.4°F13.0°C 98% 2.8 mph W4.5 kmh W 5.4 mph8.7 kmh 29.98 in1015.2 mb 0.00 in0.0 mm 0.00 in0.0 mm 0.00 in0.0 mm
01:45 AM 55.9°F13.3°C 55.4°F13.0°C 98% 3.0 mph W4.8 kmh W 5.4 mph8.7 kmh 29.98 in1015.2 mb 0.00 in0.0 mm 0.00 in0.0 mm 0.00 in0.0 mm
01:50 AM 55.9°F13.3°C 55.4°F13.0°C 98% 2.9 mph WSW4.7 kmh WSW 4.9 mph7.9 kmh 30.00 in1015.9 mb 0.00 in0.0 mm 0.00 in0.0 mm 0.00 in0.0 mm
01:55 AM 55.9°F13.3°C 55.4°F13.0°C 98% 3.4 mph W5.5 kmh W 6.3 mph10.1 kmh 30.01 in1016.3 mb 0.00 in0.0 mm 0.00 in0.0 mm 0.00 in0.0 mm
02:00 AM 55.9°F13.3°C 55.4°F13.0°C 98% 3.3 mph W5.3 kmh W 5.6 mph9.0 kmh 30.01 in1016.3 mb 0.00 in0.0 mm 0.00 in0.0 mm 0.00 in0.0 mm
02:05 AM 55.8°F13.2°C 55.3°F12.9°C 98% 2.6 mph W4.2 kmh W 4.9 mph7.9 kmh 30.01 in1016.3 mb 0.00 in0.0 mm 0.00 in0.0 mm 0.00 in0.0 mm
02:10 AM 55.8°F13.2°C 55.2°F12.9°C 98% 2.3 mph W3.7 kmh W 4.9 mph7.9 kmh 30.01 in1016.3 mb 0.00 in0.0 mm 0.00 in0.0 mm 0.00 in0.0 mm
02:15 AM 55.6°F13.1°C 55.0°F12.8°C 98% 2.7 mph W4.3 kmh W 4.5 mph7.2 kmh 30.01 in1016.3 mb 0.00 in0.0 mm 0.00 in0.0 mm 0.00 in0.0 mm
02:20 AM 55.7°F13.2°C 55.1°F12.8°C 98% 3.2 mph WSW5.1 kmh WSW 5.6 mph9.0 kmh 30.01 in1016.3 mb 0.00 in0.0 mm 0.00 in0.0 mm 0.00 in0.0 mm
02:25 AM 55.7°F13.2°C 55.2°F12.9°C 98% 3.1 mph WSW5.0 kmh WSW 4.5 mph7.2 kmh 30.01 in1016.3 mb 0.00 in0.0 mm 0.00 in0.0 mm 0.00 in0.0 mm
02:30 AM 55.6°F13.1°C 55.0°F12.8°C 98% 2.9 mph WSW4.7 kmh WSW 4.5 mph7.2 kmh 30.01 in1016.3 mb 0.00 in0.0 mm 0.00 in0.0 mm 0.00 in0.0 mm
02:35 AM 55.8°F13.2°C 55.2°F12.9°C 98% 3.2 mph WSW5.1 kmh WSW 5.1 mph8.2 kmh 30.01 in1016.3 mb 0.00 in0.0 mm 0.00 in0.0 mm 0.00 in0.0 mm
02:40 AM 55.8°F13.2°C 55.2°F12.9°C 98% 3.2 mph SW5.1 kmh SW 5.4 mph8.7 kmh 30.01 in1016.3 mb 0.00 in0.0 mm 0.00 in0.0 mm 0.00 in0.0 mm
02:45 AM 55.7°F13.2°C 55.2°F12.9°C 98% 2.9 mph SW4.7 kmh SW 4.9 mph7.9 kmh 30.01 in1016.3 mb 0.00 in0.0 mm 0.00 in0.0 mm 0.00 in0.0 mm
02:50 AM 55.8°F13.2°C 55.2°F12.9°C 98% 3.9 mph WSW6.3 kmh WSW 8.1 mph13.0 kmh 30.01 in1016.3 mb 0.00 in0.0 mm 0.00 in0.0 mm 0.00 in0.0 mm
02:55 AM 55.8°F13.2°C 55.2°F12.9°C 98% 2.9 mph WSW4.7 kmh WSW 5.6 mph9.0 kmh 30.01 in1016.3 mb 0.00 in0.0 mm 0.00 in0.0 mm 0.00 in0.0 mm
03:00 AM 55.7°F13.2°C 55.1°F12.8°C 98% 2.7 mph WSW4.3 kmh WSW 4.9 mph7.9 kmh 30.01 in1016.3 mb 0.00 in0.0 mm 0.00 in0.0 mm 0.00 in0.0 mm
03:05 AM 55.7°F13.2°C 55.1°F12.8°C 98% 2.9 mph W4.7 kmh W 5.1 mph8.2 kmh 30.01 in1016.3 mb 0.00 in0.0 mm 0.00 in0.0 mm 0.00 in0.0 mm
03:10 AM 55.9°F13.3°C 55.3°F12.9°C 98% 3.2 mph WSW5.1 kmh WSW 6.3 mph10.1 kmh 30.01 in1016.3 mb 0.00 in0.0 mm 0.00 in0.0 mm 0.00 in0.0 mm
03:15 AM 56.2°F13.4°C 55.6°F13.1°C 98% 3.8 mph WSW6.1 kmh WSW 7.6 mph12.2 kmh 30.01 in1016.3 mb 0.00 in0.0 mm 0.00 in0.0 mm 0.00 in0.0 mm
03:20 AM 56.5°F13.6°C 55.9°F13.3°C 98% 4.4 mph WSW7.1 kmh WSW 8.5 mph13.7 kmh 30.01 in1016.3 mb 0.00 in0.0 mm 0.00 in0.0 mm 0.00 in0.0 mm
03:25 AM 56.6°F13.7°C 56.0°F13.3°C 98% 4.0 mph W6.4 kmh W 6.5 mph10.5 kmh 30.01 in1016.3 mb 0.00 in0.0 mm 0.00 in0.0 mm 0.00 in0.0 mm
03:30 AM 56.7°F13.7°C 56.1°F13.4°C 98% 3.8 mph WSW6.1 kmh WSW 6.3 mph10.1 kmh 30.01 in1016.3 mb 0.00 in0.0 mm 0.00 in0.0 mm 0.00 in0.0 mm
03:35 AM 56.8°F13.8°C 56.3°F13.5°C 98% 4.2 mph W6.8 kmh W 7.8 mph12.6 kmh 30.01 in1016.3 mb 0.00 in0.0 mm 0.00 in0.0 mm 0.00 in0.0 mm
03:40 AM 57.0°F13.9°C 56.4°F13.6°C 98% 3.7 mph W6.0 kmh W 6.0 mph9.7 kmh 30.01 in1016.3 mb 0.00 in0.0 mm 0.00 in0.0 mm 0.00 in0.0 mm
03:45 AM 57.0°F13.9°C 56.5°F13.6°C 98% 3.1 mph WSW5.0 kmh WSW 5.8 mph9.3 kmh 30.01 in1016.3 mb 0.00 in0.0 mm 0.00 in0.0 mm 0.00 in0.0 mm
03:50 AM 57.2°F14.0°C 56.6°F13.7°C 98% 3.4 mph WSW5.5 kmh WSW 5.8 mph9.3 kmh 29.99 in1015.6 mb 0.00 in0.0 mm 0.00 in0.0 mm 0.00 in0.0 mm
03:55 AM 57.2°F14.0°C 56.6°F13.7°C 98% 3.6 mph WSW5.8 kmh WSW 6.3 mph10.1 kmh 29.98 in1015.2 mb 0.00 in0.0 mm 0.00 in0.0 mm 0.00 in0.0 mm
04:00 AM 57.2°F14.0°C 56.7°F13.7°C 98% 4.3 mph WSW6.9 kmh WSW 6.9 mph11.1 kmh 29.98 in1015.2 mb 0.00 in0.0 mm 0.00 in0.0 mm 0.00 in0.0 mm
04:05 AM 57.4°F14.1°C 56.8°F13.8°C 98% 4.3 mph W6.9 kmh W 8.7 mph14.0 kmh 30.00 in1015.9 mb 0.00 in0.0 mm 0.00 in0.0 mm 0.00 in0.0 mm
04:10 AM 57.5°F14.2°C 57.0°F13.9°C 98% 3.5 mph WSW5.6 kmh WSW 6.7 mph10.8 kmh 30.01 in1016.3 mb 0.00 in0.0 mm 0.00 in0.0 mm 0.00 in0.0 mm
04:15 AM 57.6°F14.2°C 57.0°F13.9°C 98% 4.0 mph WSW6.4 kmh WSW 7.8 mph12.6 kmh 30.01 in1016.3 mb 0.00 in0.0 mm 0.00 in0.0 mm 0.00 in0.0 mm
04:20 AM 57.6°F14.2°C 57.0°F13.9°C 98% 4.3 mph W6.9 kmh W 7.6 mph12.2 kmh 30.01 in1016.3 mb 0.00 in0.0 mm 0.00 in0.0 mm 0.00 in0.0 mm
04:25 AM 57.6°F14.2°C 57.0°F13.9°C 98% 3.1 mph W5.0 kmh W 5.4 mph8.7 kmh 30.01 in1016.3 mb 0.00 in0.0 mm 0.00 in0.0 mm 0.00 in0.0 mm
04:30 AM 57.6°F14.2°C 57.0°F13.9°C 98% 3.0 mph W4.8 kmh W 5.4 mph8.7 kmh 30.01 in1016.3 mb 0.00 in0.0 mm 0.00 in0.0 mm 0.00 in0.0 mm
04:35 AM 57.6°F14.2°C 57.0°F13.9°C 98% 3.5 mph W5.6 kmh W 6.3 mph10.1 kmh 30.01 in1016.3 mb 0.00 in0.0 mm 0.00 in0.0 mm 0.00 in0.0 mm
04:40 AM 57.6°F14.2°C 57.0°F13.9°C 98% 3.1 mph WSW5.0 kmh WSW 4.9 mph7.9 kmh 30.01 in1016.3 mb 0.00 in0.0 mm 0.00 in0.0 mm 0.00 in0.0 mm
04:45 AM 57.6°F14.2°C 57.0°F13.9°C 98% 3.0 mph W4.8 kmh W 5.6 mph9.0 kmh 30.01 in1016.3 mb 0.00 in0.0 mm 0.00 in0.0 mm 0.00 in0.0 mm
04:50 AM 57.6°F14.2°C 57.0°F13.9°C 98% 2.8 mph WSW4.5 kmh WSW 5.1 mph8.2 kmh 30.01 in1016.3 mb 0.00 in0.0 mm 0.00 in0.0 mm 0.00 in0.0 mm
04:55 AM 57.6°F14.2°C 57.0°F13.9°C 98% 3.4 mph W5.5 kmh W 6.7 mph10.8 kmh 30.01 in1016.3 mb 0.00 in0.0 mm 0.00 in0.0 mm 0.00 in0.0 mm
05:00 AM 57.7°F14.3°C 57.2°F14.0°C 98% 3.5 mph WSW5.6 kmh WSW 5.8 mph9.3 kmh 30.01 in1016.3 mb 0.00 in0.0 mm 0.00 in0.0 mm 0.00 in0.0 mm
05:05 AM 57.7°F14.3°C 57.2°F14.0°C 98% 3.0 mph WSW4.8 kmh WSW 6.3 mph10.1 kmh 30.01 in1016.3 mb 0.00 in0.0 mm 0.00 in0.0 mm 0.00 in0.0 mm
05:10 AM 57.7°F14.3°C 57.2°F14.0°C 98% 2.5 mph WNW4.0 kmh WNW 4.9 mph7.9 kmh 30.01 in1016.3 mb 0.00 in0.0 mm 0.00 in0.0 mm 0.00 in0.0 mm
05:15 AM 57.7°F14.3°C 57.2°F14.0°C 98% 2.6 mph W4.2 kmh W 4.0 mph6.4 kmh 30.01 in1016.3 mb 0.00 in0.0 mm 0.00 in0.0 mm 0.00 in0.0 mm
05:20 AM 57.7°F14.3°C 57.2°F14.0°C 98% 2.9 mph W4.7 kmh W 4.0 mph6.4 kmh 30.01 in1016.3 mb 0.00 in0.0 mm 0.00 in0.0 mm 0.00 in0.0 mm
05:25 AM 57.7°F14.3°C 57.2°F14.0°C 98% 3.6 mph SW5.8 kmh SW 6.0 mph9.7 kmh 30.01 in1016.3 mb 0.00 in0.0 mm 0.00 in0.0 mm 0.00 in0.0 mm
05:30 AM 57.7°F14.3°C 57.2°F14.0°C 98% 3.5 mph WSW5.6 kmh WSW 5.8 mph9.3 kmh 30.01 in1016.3 mb 0.00 in0.0 mm 0.00 in0.0 mm 0.00 in0.0 mm
05:35 AM 57.7°F14.3°C 57.2°F14.0°C 98% 3.7 mph WSW6.0 kmh WSW 8.1 mph13.0 kmh 30.01 in1016.3 mb 0.00 in0.0 mm 0.00 in0.0 mm 0.00 in0.0 mm
05:40 AM 57.7°F14.3°C 57.2°F14.0°C 98% 3.3 mph WSW5.3 kmh WSW 5.1 mph8.2 kmh 30.01 in1016.3 mb 0.00 in0.0 mm 0.00 in0.0 mm 0.00 in0.0 mm
05:45 AM 57.7°F14.3°C 57.2°F14.0°C 98% 3.0 mph W4.8 kmh W 6.0 mph9.7 kmh 30.01 in1016.3 mb 0.00 in0.0 mm 0.00 in0.0 mm 0.00 in0.0 mm
05:50 AM 57.7°F14.3°C 57.2°F14.0°C 98% 3.8 mph WSW6.1 kmh WSW 6.5 mph10.5 kmh 30.01 in1016.3 mb 0.00 in0.0 mm 0.00 in0.0 mm 0.00 in0.0 mm
05:55 AM 57.7°F14.3°C 57.2°F14.0°C 98% 3.5 mph WSW5.6 kmh WSW 5.8 mph9.3 kmh 30.01 in1016.3 mb 0.00 in0.0 mm 0.00 in0.0 mm 0.00 in0.0 mm
06:00 AM 57.7°F14.3°C 57.2°F14.0°C 98% 2.6 mph W4.2 kmh W 5.8 mph9.3 kmh 30.01 in1016.3 mb 0.00 in0.0 mm 0.00 in0.0 mm 0.00 in0.0 mm
06:05 AM 57.7°F14.3°C 57.2°F14.0°C 98% 2.7 mph WSW4.3 kmh WSW 4.9 mph7.9 kmh 30.01 in1016.3 mb 0.00 in0.0 mm 0.00 in0.0 mm 0.00 in0.0 mm
06:10 AM 57.7°F14.3°C 57.2°F14.0°C 98% 2.4 mph WSW3.9 kmh WSW 4.0 mph6.4 kmh 30.01 in1016.3 mb 0.00 in0.0 mm 0.00 in0.0 mm 0.00 in0.0 mm
06:15 AM 57.6°F14.2°C 57.0°F13.9°C 98% 3.9 mph W6.3 kmh W 8.3 mph13.4 kmh 30.01 in1016.3 mb 0.00 in0.0 mm 0.00 in0.0 mm 0.00 in0.0 mm
06:20 AM 57.5°F14.2°C 56.9°F13.8°C 98% 2.8 mph WSW4.5 kmh WSW 5.1 mph8.2 kmh 30.01 in1016.3 mb 0.00 in0.0 mm 0.00 in0.0 mm 0.00 in0.0 mm
06:25 AM 57.3°F14.1°C 56.8°F13.8°C 98% 2.8 mph W4.5 kmh W 4.5 mph7.2 kmh 30.01 in1016.3 mb 0.00 in0.0 mm 0.00 in0.0 mm 0.00 in0.0 mm
06:30 AM 57.2°F14.0°C 56.6°F13.7°C 98% 3.6 mph WSW5.8 kmh WSW 6.3 mph10.1 kmh 30.01 in1016.3 mb 0.00 in0.0 mm 0.00 in0.0 mm 0.00 in0.0 mm
06:35 AM 57.1°F13.9°C 56.6°F13.7°C 98% 2.1 mph W3.4 kmh W 5.1 mph8.2 kmh 30.01 in1016.3 mb 0.00 in0.0 mm 0.00 in0.0 mm 0.00 in0.0 mm
06:40 AM 57.0°F13.9°C 56.4°F13.6°C 98% 2.7 mph SW4.3 kmh SW 4.5 mph7.2 kmh 30.01 in1016.3 mb 0.00 in0.0 mm 0.00 in0.0 mm 0.00 in0.0 mm
06:45 AM 56.8°F13.8°C 56.3°F13.5°C 98% 2.4 mph SW3.9 kmh SW 4.9 mph7.9 kmh 30.01 in1016.3 mb 0.00 in0.0 mm 0.00 in0.0 mm 0.00 in0.0 mm
06:50 AM 56.7°F13.7°C 56.1°F13.4°C 98% 1.7 mph WSW2.7 kmh WSW 3.8 mph6.1 kmh 30.01 in1016.3 mb 0.00 in0.0 mm 0.00 in0.0 mm 0.00 in0.0 mm
06:55 AM 56.7°F13.7°C 56.1°F13.4°C 98% 2.3 mph SW3.7 kmh SW 5.1 mph8.2 kmh 30.01 in1016.3 mb 0.00 in0.0 mm 0.00 in0.0 mm 0.00 in0.0 mm
07:00 AM 56.6°F13.7°C 56.0°F13.3°C 98% 2.0 mph SW3.2 kmh SW 3.6 mph5.8 kmh 30.01 in1016.3 mb 0.00 in0.0 mm 0.00 in0.0 mm 0.00 in0.0 mm
07:05 AM 56.5°F13.6°C 55.9°F13.3°C 98% 1.6 mph WSW2.6 kmh WSW 3.4 mph5.5 kmh 30.01 in1016.3 mb 0.00 in0.0 mm 0.00 in0.0 mm 0.00 in0.0 mm
07:10 AM 56.4°F13.6°C 55.9°F13.3°C 98% 1.1 mph SW1.8 kmh SW 3.6 mph5.8 kmh 30.01 in1016.3 mb 0.00 in0.0 mm 0.00 in0.0 mm 0.00 in0.0 mm
07:15 AM 56.3°F13.5°C 55.7°F13.2°C 98% 1.5 mph S2.4 kmh S 3.8 mph6.1 kmh 30.01 in1016.3 mb 0.00 in0.0 mm 0.00 in0.0 mm 0.00 in0.0 mm
07:20 AM 56.3°F13.5°C 55.7°F13.2°C 98% 1.4 mph SW2.3 kmh SW 3.4 mph5.5 kmh 30.01 in1016.3 mb 0.00 in0.0 mm 0.00 in0.0 mm 0.00 in0.0 mm
07:25 AM 56.1°F13.4°C 55.6°F13.1°C 98% 0.7 mph SW1.1 kmh SW 2.5 mph4.0 kmh 30.01 in1016.3 mb 0.00 in0.0 mm 0.00 in0.0 mm 0.00 in0.0 mm
07:30 AM 56.2°F13.4°C 55.6°F13.1°C 98% 1.8 mph SW2.9 kmh SW 3.4 mph5.5 kmh 30.01 in1016.3 mb 0.00 in0.0 mm 0.00 in0.0 mm 0.00 in0.0 mm
07:35 AM 56.3°F13.5°C 55.7°F13.2°C 98% 1.3 mph SW2.1 kmh SW 2.5 mph4.0 kmh 30.01 in1016.3 mb 0.00 in0.0 mm 0.00 in0.0 mm 0.00 in0.0 mm
07:40 AM 56.3°F13.5°C 55.7°F13.2°C 98% 1.2 mph SW1.9 kmh SW 3.6 mph5.8 kmh 30.01 in1016.3 mb 0.00 in0.0 mm 0.00 in0.0 mm 0.00 in0.0 mm
07:45 AM 56.4°F13.6°C 55.9°F13.3°C 98% 2.2 mph SW3.5 kmh SW 4.0 mph6.4 kmh 30.01 in1016.3 mb 0.00 in0.0 mm 0.00 in0.0 mm 0.00 in0.0 mm
07:50 AM 56.6°F13.7°C 56.1°F13.4°C 98% 1.9 mph SW3.1 kmh SW 4.0 mph6.4 kmh 30.03 in1016.9 mb 0.00 in0.0 mm 0.00 in0.0 mm 0.00 in0.0 mm
07:55 AM 56.8°F13.8°C 56.2°F13.4°C 98% 1.8 mph SW2.9 kmh SW 2.9 mph4.7 kmh 30.04 in1017.3 mb 0.00 in0.0 mm 0.00 in0.0 mm 0.00 in0.0 mm
08:00 AM 57.0°F13.9°C 56.4°F13.6°C 98% 2.2 mph WSW3.5 kmh WSW 4.5 mph7.2 kmh 30.04 in1017.3 mb 0.00 in0.0 mm 0.00 in0.0 mm 0.00 in0.0 mm
08:05 AM 57.2°F14.0°C 56.7°F13.7°C 98% 1.0 mph WSW1.6 kmh WSW 2.9 mph4.7 kmh 30.02 in1016.6 mb 0.00 in0.0 mm 0.00 in0.0 mm 0.00 in0.0 mm
08:10 AM 57.7°F14.3°C 57.1°F13.9°C 98% 1.8 mph SSW2.9 kmh SSW 4.3 mph6.9 kmh 30.01 in1016.3 mb 0.00 in0.0 mm 0.00 in0.0 mm 0.00 in0.0 mm
08:15 AM 58.2°F14.6°C 57.7°F14.3°C 98% 2.0 mph WSW3.2 kmh WSW 4.5 mph7.2 kmh 30.01 in1016.3 mb 0.00 in0.0 mm 0.00 in0.0 mm 0.00 in0.0 mm
08:20 AM 58.7°F14.8°C 58.1°F14.5°C 98% 1.9 mph WSW3.1 kmh WSW 4.3 mph6.9 kmh 30.01 in1016.3 mb 0.00 in0.0 mm 0.00 in0.0 mm 0.00 in0.0 mm
08:25 AM 59.0°F15.0°C 58.4°F14.7°C 98% 2.5 mph SW4.0 kmh SW 4.3 mph6.9 kmh 30.01 in1016.3 mb 0.00 in0.0 mm 0.00 in0.0 mm 0.00 in0.0 mm
08:30 AM 59.2°F15.1°C 58.7°F14.8°C 98% 1.8 mph SW2.9 kmh SW 5.1 mph8.2 kmh 30.01 in1016.3 mb 0.00 in0.0 mm 0.00 in0.0 mm 0.00 in0.0 mm
08:35 AM 59.4°F15.2°C 58.6°F14.8°C 97% 4.2 mph SW6.8 kmh SW 8.3 mph13.4 kmh 29.99 in1015.6 mb 0.00 in0.0 mm 0.00 in0.0 mm 0.00 in0.0 mm
08:40 AM 59.6°F15.3°C 58.6°F14.8°C 97% 3.4 mph SW5.5 kmh SW 6.7 mph10.8 kmh 29.98 in1015.2 mb 0.00 in0.0 mm 0.00 in0.0 mm 0.00 in0.0 mm
08:45 AM 59.8°F15.4°C 58.4°F14.7°C 95% 3.9 mph SW6.3 kmh SW 7.4 mph11.9 kmh 29.98 in1015.2 mb 0.00 in0.0 mm 0.00 in0.0 mm 0.00 in0.0 mm
08:50 AM 60.0°F15.6°C 58.3°F14.6°C 94% 3.7 mph SW6.0 kmh SW 6.5 mph10.5 kmh 29.98 in1015.2 mb 0.00 in0.0 mm 0.00 in0.0 mm 0.00 in0.0 mm
08:55 AM 60.2°F15.7°C 57.9°F14.4°C 92% 4.0 mph WSW6.4 kmh WSW 6.3 mph10.1 kmh 29.98 in1015.2 mb 0.00 in0.0 mm 0.00 in0.0 mm 0.00 in0.0 mm
09:00 AM 60.4°F15.8°C 58.1°F14.5°C 92% 3.5 mph WSW5.6 kmh WSW 5.8 mph9.3 kmh 29.98 in1015.2 mb 0.00 in0.0 mm 0.00 in0.0 mm 0.00 in0.0 mm
09:05 AM 60.7°F15.9°C 58.3°F14.6°C 92% 3.7 mph SW6.0 kmh SW 7.6 mph12.2 kmh 30.00 in1015.9 mb 0.00 in0.0 mm 0.00 in0.0 mm 0.00 in0.0 mm
09:10 AM 60.9°F16.1°C 58.5°F14.7°C 92% 3.6 mph WSW5.8 kmh WSW 8.3 mph13.4 kmh 30.01 in1016.3 mb 0.00 in0.0 mm 0.00 in0.0 mm 0.00 in0.0 mm
09:15 AM 61.0°F16.1°C 58.4°F14.7°C 91% 3.6 mph WSW5.8 kmh WSW 5.6 mph9.0 kmh 30.01 in1016.3 mb 0.00 in0.0 mm 0.00 in0.0 mm 0.00 in0.0 mm
09:20 AM 61.3°F16.3°C 58.7°F14.8°C 91% 3.4 mph WSW5.5 kmh WSW 6.3 mph10.1 kmh 30.01 in1016.3 mb 0.00 in0.0 mm 0.00 in0.0 mm 0.00 in0.0 mm
09:25 AM 62.3°F16.8°C 59.4°F15.2°C 90% 3.4 mph WSW5.5 kmh WSW 4.5 mph7.2 kmh 30.01 in1016.3 mb 0.00 in0.0 mm 0.00 in0.0 mm 0.00 in0.0 mm
09:30 AM 63.2°F17.3°C 59.3°F15.2°C 87% 4.0 mph WSW6.4 kmh WSW 6.9 mph11.1 kmh 30.01 in1016.3 mb 0.00 in0.0 mm 0.00 in0.0 mm 0.00 in0.0 mm
09:35 AM 63.5°F17.5°C 58.8°F14.9°C 85% 3.9 mph SW6.3 kmh SW 7.4 mph11.9 kmh 30.01 in1016.3 mb 0.00 in0.0 mm 0.00 in0.0 mm 0.00 in0.0 mm
09:40 AM 63.4°F17.4°C 58.3°F14.6°C 84% 4.0 mph WSW6.4 kmh WSW 6.3 mph10.1 kmh 30.01 in1016.3 mb 0.00 in0.0 mm 0.00 in0.0 mm 0.00 in0.0 mm
09:45 AM 63.2°F17.3°C 58.2°F14.6°C 84% 3.8 mph WSW6.1 kmh WSW 6.5 mph10.5 kmh 30.01 in1016.3 mb 0.00 in0.0 mm 0.00 in0.0 mm 0.00 in0.0 mm
09:50 AM 63.0°F17.2°C 57.7°F14.3°C 83% 4.4 mph WSW7.1 kmh WSW 8.7 mph14.0 kmh 30.03 in1016.9 mb 0.00 in0.0 mm 0.00 in0.0 mm 0.00 in0.0 mm
09:55 AM 63.0°F17.2°C 58.0°F14.4°C 84% 4.0 mph WSW6.4 kmh WSW 6.9 mph11.1 kmh 30.04 in1017.3 mb 0.00 in0.0 mm 0.00 in0.0 mm 0.00 in0.0 mm
10:00 AM 63.2°F17.3°C 58.2°F14.6°C 84% 3.9 mph SW6.3 kmh SW 7.8 mph12.6 kmh 30.04 in1017.3 mb 0.00 in0.0 mm 0.00 in0.0 mm 0.00 in0.0 mm
10:05 AM 63.4°F17.4°C 58.2°F14.6°C 83% 4.0 mph WSW6.4 kmh WSW 6.7 mph10.8 kmh 30.04 in1017.3 mb 0.00 in0.0 mm 0.00 in0.0 mm 0.00 in0.0 mm
10:10 AM 63.7°F17.6°C 58.4°F14.7°C 83% 4.0 mph WSW6.4 kmh WSW 6.3 mph10.1 kmh 30.04 in1017.3 mb 0.00 in0.0 mm 0.00 in0.0 mm 0.00 in0.0 mm
10:15 AM 63.7°F17.6°C 58.4°F14.7°C 83% 5.0 mph SW8.0 kmh SW 7.8 mph12.6 kmh 30.04 in1017.3 mb 0.00 in0.0 mm 0.00 in0.0 mm 0.00 in0.0 mm
10:20 AM 64.1°F17.8°C 59.0°F15.0°C 84% 3.7 mph WSW6.0 kmh WSW 6.0 mph9.7 kmh 30.02 in1016.6 mb 0.00 in0.0 mm 0.00 in0.0 mm 0.00 in0.0 mm
10:25 AM 64.7°F18.2°C 59.5°F15.3°C 83% 3.4 mph W5.5 kmh W 8.5 mph13.7 kmh 30.01 in1016.3 mb 0.00 in0.0 mm 0.00 in0.0 mm 0.00 in0.0 mm
10:30 AM 65.2°F18.4°C 59.7°F15.4°C 82% 4.1 mph SW6.6 kmh SW 8.7 mph14.0 kmh 30.01 in1016.3 mb 0.00 in0.0 mm 0.00 in0.0 mm 0.00 in0.0 mm
10:35 AM 65.2°F18.4°C 59.2°F15.1°C 81% 4.8 mph SW7.7 kmh SW 8.9 mph14.3 kmh 30.02 in1016.6 mb 0.00 in0.0 mm 0.00 in0.0 mm 0.00 in0.0 mm
10:40 AM 65.1°F18.4°C 59.0°F15.0°C 81% 4.8 mph WSW7.7 kmh WSW 8.9 mph14.3 kmh 30.04 in1017.3 mb 0.00 in0.0 mm 0.00 in0.0 mm 0.00 in0.0 mm
10:45 AM 65.1°F18.4°C 59.1°F15.1°C 81% 4.8 mph SW7.7 kmh SW 9.2 mph14.8 kmh 30.04 in1017.3 mb 0.00 in0.0 mm 0.00 in0.0 mm 0.00 in0.0 mm
10:50 AM 65.3°F18.5°C 59.5°F15.3°C 82% 3.9 mph SW6.3 kmh SW 8.3 mph13.4 kmh 30.04 in1017.3 mb 0.00 in0.0 mm 0.00 in0.0 mm 0.00 in0.0 mm
10:55 AM 65.2°F18.4°C 59.0°F15.0°C 80% 5.5 mph WSW8.9 kmh WSW 9.4 mph15.1 kmh 30.04 in1017.3 mb 0.00 in0.0 mm 0.00 in0.0 mm 0.00 in0.0 mm
11:00 AM 65.2°F18.4°C 59.3°F15.2°C 81% 3.8 mph SW6.1 kmh SW 6.9 mph11.1 kmh 30.04 in1017.3 mb 0.00 in0.0 mm 0.00 in0.0 mm 0.00 in0.0 mm
11:05 AM 65.3°F18.5°C 59.0°F15.0°C 80% 5.4 mph SW8.7 kmh SW 13.9 mph22.4 kmh 30.04 in1017.3 mb 0.00 in0.0 mm 0.00 in0.0 mm 0.00 in0.0 mm
11:10 AM 65.2°F18.4°C 58.6°F14.8°C 80% 5.9 mph SW9.5 kmh SW 13.6 mph21.9 kmh 30.04 in1017.3 mb 0.00 in0.0 mm 0.00 in0.0 mm 0.00 in0.0 mm
11:15 AM 65.7°F18.7°C 59.5°F15.3°C 80% 4.2 mph W6.8 kmh W 6.9 mph11.1 kmh 30.04 in1017.3 mb 0.00 in0.0 mm 0.00 in0.0 mm 0.00 in0.0 mm
11:20 AM 66.8°F19.3°C 60.3°F15.7°C 80% 4.5 mph SW7.2 kmh SW 9.8 mph15.8 kmh 30.04 in1017.3 mb 0.00 in0.0 mm 0.00 in0.0 mm 0.00 in0.0 mm
11:25 AM 67.2°F19.6°C 59.7°F15.4°C 77% 4.9 mph WSW7.9 kmh WSW 9.8 mph15.8 kmh 30.04 in1017.3 mb 0.00 in0.0 mm 0.00 in0.0 mm 0.00 in0.0 mm
11:30 AM 67.8°F19.9°C 60.3°F15.7°C 77% 4.0 mph SW6.4 kmh SW 6.3 mph10.1 kmh -- 0.00 in0.0 mm 0.00 in0.0 mm 0.00 in0.0 mm
11:35 AM 69.2°F20.7°C 61.2°F16.2°C 76% 3.5 mph SW5.6 kmh SW 6.9 mph11.1 kmh 30.03 in1016.9 mb 0.00 in0.0 mm 0.00 in0.0 mm 0.00 in0.0 mm
11:40 AM 69.0°F20.6°C 60.0°F15.6°C 73% 5.4 mph W8.7 kmh W 8.5 mph13.7 kmh 30.03 in1016.9 mb 0.00 in0.0 mm 0.00 in0.0 mm 0.00 in0.0 mm
11:45 AM 69.6°F20.9°C 60.8°F16.0°C 74% 3.7 mph WSW6.0 kmh WSW 8.5 mph13.7 kmh 30.03 in1016.9 mb 0.00 in0.0 mm 0.00 in0.0 mm 0.00 in0.0 mm
11:50 AM 70.3°F21.3°C 60.1°F15.6°C 70% 5.0 mph SW8.0 kmh SW 13.2 mph21.2 kmh 30.01 in1016.3 mb 0.00 in0.0 mm 0.00 in0.0 mm 0.00 in0.0 mm
11:55 AM 70.7°F21.5°C 59.7°F15.4°C 68% 5.7 mph SW9.2 kmh SW 13.4 mph21.6 kmh 30.00 in1015.9 mb 0.00 in0.0 mm 0.00 in0.0 mm 0.00 in0.0 mm
12:00 PM 70.2°F21.2°C 59.5°F15.3°C 69% 7.8 mph SW12.6 kmh SW 20.8 mph33.5 kmh 30.00 in1015.9 mb 0.00 in0.0 mm 0.00 in0.0 mm 0.00 in0.0 mm
12:05 PM 70.9°F21.6°C 60.6°F15.9°C 70% 5.0 mph SW8.0 kmh SW 11.6 mph18.7 kmh 30.00 in1015.9 mb 0.00 in0.0 mm 0.00 in0.0 mm 0.00 in0.0 mm
12:10 PM 70.4°F21.3°C 59.6°F15.3°C 69% 6.2 mph WSW10.0 kmh WSW 15.2 mph24.5 kmh 30.00 in1015.9 mb 0.00 in0.0 mm 0.00 in0.0 mm 0.00 in0.0 mm
12:15 PM 70.3°F21.3°C 59.7°F15.4°C 69% 6.6 mph SW10.6 kmh SW 12.5 mph20.1 kmh 30.00 in1015.9 mb 0.00 in0.0 mm 0.00 in0.0 mm 0.00 in0.0 mm
12:20 PM 69.8°F21.0°C 58.6°F14.8°C 68% 7.6 mph SW12.2 kmh SW 11.4 mph18.3 kmh 30.00 in1015.9 mb 0.00 in0.0 mm 0.00 in0.0 mm 0.00 in0.0 mm
12:25 PM 69.7°F20.9°C 59.1°F15.1°C 69% 5.2 mph SW8.4 kmh SW 9.8 mph15.8 kmh 30.00 in1015.9 mb 0.00 in0.0 mm 0.00 in0.0 mm 0.00 in0.0 mm
12:30 PM 69.2°F20.7°C 59.0°F15.0°C 70% 6.0 mph SW9.7 kmh SW 10.3 mph16.6 kmh 30.00 in1015.9 mb 0.00 in0.0 mm 0.00 in0.0 mm 0.00 in0.0 mm
12:35 PM 68.8°F20.4°C 58.7°F14.8°C 70% 8.2 mph SW13.2 kmh SW 12.5 mph20.1 kmh 30.00 in1015.9 mb 0.00 in0.0 mm 0.00 in0.0 mm 0.00 in0.0 mm
12:40 PM 68.2°F20.1°C 58.3°F14.6°C 71% 7.7 mph WSW12.4 kmh WSW 13.6 mph21.9 kmh 30.00 in1015.9 mb 0.00 in0.0 mm 0.00 in0.0 mm 0.00 in0.0 mm
12:45 PM 68.9°F20.5°C 60.0°F15.6°C 73% 5.2 mph WSW8.4 kmh WSW 9.4 mph15.1 kmh 30.00 in1015.9 mb 0.00 in0.0 mm 0.00 in0.0 mm 0.00 in0.0 mm
12:50 PM 69.7°F20.9°C 60.2°F15.7°C 72% 5.2 mph SW8.4 kmh SW 13.6 mph21.9 kmh 30.00 in1015.9 mb 0.00 in0.0 mm 0.00 in0.0 mm 0.00 in0.0 mm
12:55 PM 70.0°F21.1°C 60.3°F15.7°C 71% 5.7 mph SW9.2 kmh SW 10.7 mph17.2 kmh 30.00 in1015.9 mb 0.00 in0.0 mm 0.00 in0.0 mm 0.00 in0.0 mm
01:00 PM 70.5°F21.4°C 60.3°F15.7°C 70% 5.9 mph WSW9.5 kmh WSW 9.4 mph15.1 kmh 30.00 in1015.9 mb 0.00 in0.0 mm 0.00 in0.0 mm 0.00 in0.0 mm
01:05 PM 70.0°F21.1°C 60.3°F15.7°C 71% 6.0 mph WSW9.7 kmh WSW 9.4 mph15.1 kmh 30.00 in1015.9 mb 0.00 in0.0 mm 0.00 in0.0 mm 0.00 in0.0 mm
01:10 PM 69.1°F20.6°C 59.3°F15.2°C 71% 6.9 mph SW11.1 kmh SW 10.5 mph16.9 kmh 30.00 in1015.9 mb 0.00 in0.0 mm 0.00 in0.0 mm 0.00 in0.0 mm
01:15 PM 68.1°F20.1°C 57.5°F14.2°C 69% 7.5 mph WSW12.1 kmh WSW 10.1 mph16.3 kmh 30.00 in1015.9 mb 0.00 in0.0 mm 0.00 in0.0 mm 0.00 in0.0 mm
01:20 PM 67.4°F19.7°C 57.7°F14.3°C 71% 7.8 mph W12.6 kmh W 13.6 mph21.9 kmh 30.00 in1015.9 mb 0.00 in0.0 mm 0.00 in0.0 mm 0.00 in0.0 mm
01:25 PM 67.3°F19.6°C 58.4°F14.7°C 73% 6.0 mph W9.7 kmh W 8.9 mph14.3 kmh 30.00 in1015.9 mb 0.00 in0.0 mm 0.00 in0.0 mm 0.00 in0.0 mm
01:30 PM 68.3°F20.2°C 59.8°F15.4°C 74% 4.7 mph WSW7.6 kmh WSW 10.7 mph17.2 kmh 30.00 in1015.9 mb 0.00 in0.0 mm 0.00 in0.0 mm 0.00 in0.0 mm
01:35 PM 69.0°F20.6°C 60.0°F15.6°C 73% 5.4 mph WSW8.7 kmh WSW 10.1 mph16.3 kmh 30.00 in1015.9 mb 0.00 in0.0 mm 0.00 in0.0 mm 0.00 in0.0 mm
01:40 PM 68.2°F20.1°C 58.4°F14.7°C 71% 7.7 mph SW12.4 kmh SW 13.0 mph20.9 kmh 30.00 in1015.9 mb 0.00 in0.0 mm 0.00 in0.0 mm 0.00 in0.0 mm
01:45 PM 67.6°F19.8°C 57.6°F14.2°C 70% 7.2 mph SW11.6 kmh SW 12.5 mph20.1 kmh 30.00 in1015.9 mb 0.00 in0.0 mm 0.00 in0.0 mm 0.00 in0.0 mm
01:50 PM 68.1°F20.1°C 58.3°F14.6°C 71% 6.8 mph SW10.9 kmh SW 12.3 mph19.8 kmh 29.98 in1015.2 mb 0.00 in0.0 mm 0.00 in0.0 mm 0.00 in0.0 mm
01:55 PM 69.3°F20.7°C 59.0°F15.0°C 70% 5.2 mph SW8.4 kmh SW 8.5 mph13.7 kmh 29.98 in1015.2 mb 0.00 in0.0 mm 0.00 in0.0 mm 0.00 in0.0 mm
02:00 PM 69.4°F20.8°C 58.0°F14.4°C 67% 7.5 mph SW12.1 kmh SW 13.6 mph21.9 kmh 29.98 in1015.2 mb 0.00 in0.0 mm 0.00 in0.0 mm 0.00 in0.0 mm
02:05 PM 68.7°F20.4°C 57.7°F14.3°C 68% 7.7 mph SW12.4 kmh SW 15.0 mph24.1 kmh 30.00 in1015.9 mb 0.00 in0.0 mm 0.00 in0.0 mm 0.00 in0.0 mm
02:10 PM 69.4°F20.8°C 59.2°F15.1°C 70% 5.4 mph WSW8.7 kmh WSW 9.2 mph14.8 kmh 30.00 in1015.9 mb 0.00 in0.0 mm 0.00 in0.0 mm 0.00 in0.0 mm
02:15 PM 69.4°F20.8°C 58.8°F14.9°C 69% 5.6 mph WSW9.0 kmh WSW 12.3 mph19.8 kmh 30.00 in1015.9 mb 0.00 in0.0 mm 0.00 in0.0 mm 0.00 in0.0 mm
02:20 PM 69.8°F21.0°C 59.0°F15.0°C 69% 5.4 mph WSW8.7 kmh WSW 12.5 mph20.1 kmh 30.00 in1015.9 mb 0.00 in0.0 mm 0.00 in0.0 mm 0.00 in0.0 mm
02:25 PM -- -- - 6.6 mph WSW10.6 kmh WSW 15.7 mph25.3 kmh -- 0.00 in0.0 mm 0.00 in0.0 mm 0.00 in0.0 mm
02:30 PM -- -- - 6.3 mph SW10.1 kmh SW 10.3 mph16.6 kmh -- 0.00 in0.0 mm 0.00 in0.0 mm 0.00 in0.0 mm
02:35 PM -- -- - 7.5 mph SW12.1 kmh SW 12.3 mph19.8 kmh -- 0.00 in0.0 mm 0.00 in0.0 mm 0.00 in0.0 mm
02:40 PM 67.6°F19.8°C 58.7°F14.8°C 73% 6.5 mph WSW10.5 kmh WSW 11.9 mph19.2 kmh 30.00 in1015.9 mb 0.00 in0.0 mm 0.00 in0.0 mm 0.00 in0.0 mm
02:45 PM 68.2°F20.1°C 59.2°F15.1°C 73% 7.4 mph WSW11.9 kmh WSW 11.6 mph18.7 kmh 30.00 in1015.9 mb 0.00 in0.0 mm 0.00 in0.0 mm 0.00 in0.0 mm
02:50 PM -- -- - 6.2 mph W10.0 kmh W 8.1 mph13.0 kmh -- 0.00 in0.0 mm 0.00 in0.0 mm 0.00 in0.0 mm
02:55 PM 68.5°F20.3°C 59.1°F15.1°C 72% 5.6 mph SW9.0 kmh SW 11.6 mph18.7 kmh 30.00 in1015.9 mb 0.00 in0.0 mm 0.00 in0.0 mm 0.00 in0.0 mm
03:00 PM 68.4°F20.2°C 59.0°F15.0°C 72% 6.2 mph WSW10.0 kmh WSW 12.5 mph20.1 kmh 30.00 in1015.9 mb 0.00 in0.0 mm 0.00 in0.0 mm 0.00 in0.0 mm
03:05 PM 69.1°F20.6°C 59.9°F15.5°C 72% 5.4 mph SW8.7 kmh SW 8.7 mph14.0 kmh 30.00 in1015.9 mb 0.00 in0.0 mm 0.00 in0.0 mm 0.00 in0.0 mm
03:10 PM 69.4°F20.8°C 59.4°F15.2°C 70% 5.6 mph W9.0 kmh W 10.7 mph17.2 kmh 30.00 in1015.9 mb 0.00 in0.0 mm 0.00 in0.0 mm 0.00 in0.0 mm
03:15 PM 69.6°F20.9°C 59.5°F15.3°C 70% 5.9 mph SW9.5 kmh SW 12.3 mph19.8 kmh 30.00 in1015.9 mb 0.00 in0.0 mm 0.00 in0.0 mm 0.00 in0.0 mm
03:20 PM 69.3°F20.7°C 59.8°F15.4°C 72% 5.6 mph SW9.0 kmh SW 10.5 mph16.9 kmh 30.00 in1015.9 mb 0.00 in0.0 mm 0.00 in0.0 mm 0.00 in0.0 mm
03:25 PM 69.4°F20.8°C 60.0°F15.6°C 72% 5.3 mph SW8.5 kmh SW 9.4 mph15.1 kmh 30.00 in1015.9 mb 0.00 in0.0 mm 0.00 in0.0 mm 0.00 in0.0 mm
03:30 PM 69.3°F20.7°C 60.0°F15.6°C 72% 5.1 mph SW8.2 kmh SW 11.0 mph17.7 kmh 30.00 in1015.9 mb 0.00 in0.0 mm 0.00 in0.0 mm 0.00 in0.0 mm
03:35 PM 69.3°F20.7°C 60.6°F15.9°C 74% 4.9 mph WSW7.9 kmh WSW 8.7 mph14.0 kmh 29.98 in1015.2 mb 0.00 in0.0 mm 0.00 in0.0 mm 0.00 in0.0 mm
03:40 PM 69.3°F20.7°C 60.6°F15.9°C 74% 5.6 mph SW9.0 kmh SW 9.8 mph15.8 kmh 29.98 in1015.2 mb 0.00 in0.0 mm 0.00 in0.0 mm 0.00 in0.0 mm
03:45 PM 69.0°F20.6°C 60.2°F15.7°C 74% 5.7 mph SW9.2 kmh SW 8.7 mph14.0 kmh 29.98 in1015.2 mb 0.00 in0.0 mm 0.00 in0.0 mm 0.00 in0.0 mm
03:50 PM 68.7°F20.4°C 60.3°F15.7°C 74% 5.4 mph SW8.7 kmh SW 9.8 mph15.8 kmh 29.98 in1015.2 mb 0.00 in0.0 mm 0.00 in0.0 mm 0.00 in0.0 mm
03:55 PM -- -- - 6.3 mph SW10.1 kmh SW 12.8 mph20.6 kmh -- 0.00 in0.0 mm 0.00 in0.0 mm 0.00 in0.0 mm
04:00 PM -- -- - 5.7 mph WSW9.2 kmh WSW 10.5 mph16.9 kmh -- 0.00 in0.0 mm 0.00 in0.0 mm 0.00 in0.0 mm
04:05 PM 68.2°F20.1°C 59.9°F15.5°C 75% 5.9 mph SW9.5 kmh SW 12.3 mph19.8 kmh 29.98 in1015.2 mb 0.00 in0.0 mm 0.00 in0.0 mm 0.00 in0.0 mm
04:10 PM 67.8°F19.9°C 59.6°F15.3°C 75% 6.2 mph SW10.0 kmh SW 10.5 mph16.9 kmh 29.98 in1015.2 mb 0.00 in0.0 mm 0.00 in0.0 mm 0.00 in0.0 mm
04:15 PM 67.5°F19.7°C 60.2°F15.7°C 78% 5.7 mph SW9.2 kmh SW 11.6 mph18.7 kmh 29.98 in1015.2 mb 0.00 in0.0 mm 0.00 in0.0 mm 0.00 in0.0 mm
04:20 PM 67.6°F19.8°C 59.8°F15.4°C 76% 6.3 mph SW10.1 kmh SW 12.5 mph20.1 kmh 29.98 in1015.2 mb 0.00 in0.0 mm 0.00 in0.0 mm 0.00 in0.0 mm
04:25 PM -- -- - 5.4 mph SW8.7 kmh SW 12.3 mph19.8 kmh -- 0.00 in0.0 mm 0.00 in0.0 mm 0.00 in0.0 mm
04:30 PM -- -- - 4.5 mph WSW7.2 kmh WSW 9.8 mph15.8 kmh -- 0.00 in0.0 mm 0.00 in0.0 mm 0.00 in0.0 mm
04:35 PM 67.9°F19.9°C 60.8°F16.0°C 78% 4.3 mph SW6.9 kmh SW 6.9 mph11.1 kmh 29.98 in1015.2 mb 0.00 in0.0 mm 0.00 in0.0 mm 0.00 in0.0 mm
04:40 PM 68.0°F20.0°C 60.1°F15.6°C 76% 4.7 mph WSW7.6 kmh WSW 11.6 mph18.7 kmh 29.98 in1015.2 mb 0.00 in0.0 mm 0.00 in0.0 mm 0.00 in0.0 mm
04:45 PM 67.7°F19.8°C 60.2°F15.7°C 77% 5.9 mph SW9.5 kmh SW 11.6 mph18.7 kmh 29.98 in1015.2 mb 0.00 in0.0 mm 0.00 in0.0 mm 0.00 in0.0 mm
04:50 PM -- -- - 4.3 mph SW6.9 kmh SW 8.1 mph13.0 kmh -- 0.00 in0.0 mm 0.00 in0.0 mm 0.00 in0.0 mm
04:55 PM -- -- - 4.3 mph WSW6.9 kmh WSW 9.8 mph15.8 kmh -- 0.00 in0.0 mm 0.00 in0.0 mm 0.00 in0.0 mm
05:00 PM -- -- - 5.6 mph SW9.0 kmh SW 11.0 mph17.7 kmh -- 0.00 in0.0 mm 0.00 in0.0 mm 0.00 in0.0 mm
05:05 PM -- -- - 5.3 mph SSW8.5 kmh SSW 9.2 mph14.8 kmh -- 0.00 in0.0 mm 0.00 in0.0 mm 0.00 in0.0 mm
05:10 PM -- -- - 4.5 mph SW7.2 kmh SW 9.2 mph14.8 kmh -- 0.00 in0.0 mm 0.00 in0.0 mm 0.00 in0.0 mm
05:15 PM 65.8°F18.8°C 59.4°F15.2°C 80% 5.3 mph SW8.5 kmh SW 10.1 mph16.3 kmh 29.98 in1015.2 mb 0.00 in0.0 mm 0.00 in0.0 mm 0.00 in0.0 mm
05:20 PM 64.8°F18.2°C 58.8°F14.9°C 81% 4.5 mph SW7.2 kmh SW 8.9 mph14.3 kmh 29.98 in1015.2 mb 0.00 in0.0 mm 0.00 in0.0 mm 0.00 in0.0 mm
05:25 PM -- -- - 5.3 mph SSW8.5 kmh SSW 9.4 mph15.1 kmh -- 0.00 in0.0 mm 0.00 in0.0 mm 0.00 in0.0 mm
05:30 PM 63.8°F17.7°C 59.8°F15.4°C 87% 4.5 mph SW7.2 kmh SW 8.1 mph13.0 kmh 29.98 in1015.2 mb 0.00 in0.0 mm 0.00 in0.0 mm 0.00 in0.0 mm
05:35 PM 63.6°F17.6°C 59.8°F15.4°C 87% 4.1 mph SW6.6 kmh SW 10.1 mph16.3 kmh 29.96 in1014.6 mb 0.00 in0.0 mm 0.00 in0.0 mm 0.00 in0.0 mm
05:40 PM 63.6°F17.6°C 59.9°F15.5°C 88% 3.4 mph SW5.5 kmh SW 8.3 mph13.4 kmh 29.95 in1014.2 mb 0.00 in0.0 mm 0.00 in0.0 mm 0.00 in0.0 mm
05:45 PM 63.5°F17.5°C 59.9°F15.5°C 88% 3.9 mph SW6.3 kmh SW 8.3 mph13.4 kmh 29.95 in1014.2 mb 0.00 in0.0 mm 0.00 in0.0 mm 0.00 in0.0 mm
05:50 PM 63.4°F17.4°C 59.7°F15.4°C 88% 4.3 mph SW6.9 kmh SW 8.5 mph13.7 kmh 29.95 in1014.2 mb 0.00 in0.0 mm 0.00 in0.0 mm 0.00 in0.0 mm
05:55 PM 63.0°F17.2°C 59.4°F15.2°C 88% 5.4 mph SW8.7 kmh SW 9.2 mph14.8 kmh 29.95 in1014.2 mb 0.00 in0.0 mm 0.00 in0.0 mm 0.00 in0.0 mm
06:00 PM 62.8°F17.1°C 59.5°F15.3°C 89% 4.1 mph S6.6 kmh S 6.7 mph10.8 kmh 29.95 in1014.2 mb 0.00 in0.0 mm 0.00 in0.0 mm 0.00 in0.0 mm
06:05 PM 62.8°F17.1°C 59.5°F15.3°C 89% 3.6 mph SSW5.8 kmh SSW 6.9 mph11.1 kmh 29.95 in1014.2 mb 0.00 in0.0 mm 0.00 in0.0 mm 0.00 in0.0 mm
06:10 PM 62.6°F17.0°C 59.3°F15.2°C 89% 4.8 mph SSW7.7 kmh SSW 9.2 mph14.8 kmh 29.95 in1014.2 mb 0.00 in0.0 mm 0.00 in0.0 mm 0.00 in0.0 mm
06:15 PM 62.6°F17.0°C 59.3°F15.2°C 89% 3.7 mph SW6.0 kmh SW 6.3 mph10.1 kmh 29.95 in1014.2 mb 0.00 in0.0 mm 0.00 in0.0 mm 0.00 in0.0 mm
06:20 PM 62.4°F16.9°C 59.4°F15.2°C 90% 3.2 mph SW5.1 kmh SW 5.4 mph8.7 kmh 29.93 in1013.5 mb 0.00 in0.0 mm 0.00 in0.0 mm 0.00 in0.0 mm
06:25 PM 62.3°F16.8°C 59.2°F15.1°C 90% 3.1 mph S5.0 kmh S 7.4 mph11.9 kmh 29.92 in1013.2 mb 0.00 in0.0 mm 0.00 in0.0 mm 0.00 in0.0 mm
06:30 PM 62.1°F16.7°C 59.1°F15.1°C 90% 2.9 mph SW4.7 kmh SW 6.7 mph10.8 kmh 29.92 in1013.2 mb 0.00 in0.0 mm 0.00 in0.0 mm 0.00 in0.0 mm
06:35 PM 62.1°F16.7°C 59.1°F15.1°C 90% 2.9 mph SSW4.7 kmh SSW 6.3 mph10.1 kmh 29.94 in1013.9 mb 0.00 in0.0 mm 0.00 in0.0 mm 0.00 in0.0 mm
06:40 PM 61.9°F16.6°C 59.2°F15.1°C 91% 3.2 mph SW5.1 kmh SW 6.0 mph9.7 kmh 29.95 in1014.2 mb 0.00 in0.0 mm 0.00 in0.0 mm 0.00 in0.0 mm
06:45 PM 61.9°F16.6°C 59.2°F15.1°C 91% 4.2 mph S6.8 kmh S 8.3 mph13.4 kmh 29.95 in1014.2 mb 0.00 in0.0 mm 0.00 in0.0 mm 0.00 in0.0 mm
06:50 PM 61.7°F16.5°C 59.0°F15.0°C 91% 3.2 mph SW5.1 kmh SW 6.5 mph10.5 kmh 29.95 in1014.2 mb 0.00 in0.0 mm 0.00 in0.0 mm 0.00 in0.0 mm
06:55 PM 61.7°F16.5°C 59.0°F15.0°C 91% 3.3 mph SW5.3 kmh SW 6.0 mph9.7 kmh 29.95 in1014.2 mb 0.00 in0.0 mm 0.00 in0.0 mm 0.00 in0.0 mm
07:00 PM 61.4°F16.3°C 58.8°F14.9°C 91% 3.9 mph SSW6.3 kmh SSW 8.7 mph14.0 kmh 29.95 in1014.2 mb 0.00 in0.0 mm 0.00 in0.0 mm 0.00 in0.0 mm
07:05 PM 61.2°F16.2°C 58.6°F14.8°C 91% 3.7 mph S6.0 kmh S 6.5 mph10.5 kmh 29.93 in1013.5 mb 0.00 in0.0 mm 0.00 in0.0 mm 0.00 in0.0 mm
07:10 PM 60.9°F16.1°C 58.5°F14.7°C 92% 3.3 mph SW5.3 kmh SW 6.3 mph10.1 kmh 29.92 in1013.2 mb 0.00 in0.0 mm 0.00 in0.0 mm 0.00 in0.0 mm
07:15 PM 60.8°F16.0°C 58.4°F14.7°C 92% 3.3 mph SSW5.3 kmh SSW 7.4 mph11.9 kmh 29.92 in1013.2 mb 0.00 in0.0 mm 0.00 in0.0 mm 0.00 in0.0 mm
07:20 PM 60.5°F15.8°C 58.6°F14.8°C 94% 3.4 mph SW5.5 kmh SW 5.6 mph9.0 kmh 29.92 in1013.2 mb 0.00 in0.0 mm 0.00 in0.0 mm 0.00 in0.0 mm
07:25 PM 60.4°F15.8°C 58.7°F14.8°C 94% 3.8 mph SSW6.1 kmh SSW 8.7 mph14.0 kmh 29.92 in1013.2 mb 0.00 in0.0 mm 0.00 in0.0 mm 0.00 in0.0 mm
07:30 PM 60.3°F15.7°C 58.7°F14.8°C 94% 3.4 mph SW5.5 kmh SW 5.6 mph9.0 kmh 29.92 in1013.2 mb 0.00 in0.0 mm 0.00 in0.0 mm 0.00 in0.0 mm
07:35 PM 60.1°F15.6°C 58.6°F14.8°C 95% 4.1 mph SSW6.6 kmh SSW 8.7 mph14.0 kmh 29.92 in1013.2 mb 0.00 in0.0 mm 0.00 in0.0 mm 0.00 in0.0 mm
07:40 PM 60.1°F15.6°C 58.9°F14.9°C 96% 3.7 mph S6.0 kmh S 7.8 mph12.6 kmh 29.92 in1013.2 mb 0.00 in0.0 mm 0.00 in0.0 mm 0.00 in0.0 mm
07:45 PM 59.9°F15.5°C 58.8°F14.9°C 96% 4.2 mph S6.8 kmh S 7.6 mph12.2 kmh 29.92 in1013.2 mb 0.00 in0.0 mm 0.00 in0.0 mm 0.00 in0.0 mm
07:50 PM 59.9°F15.5°C 58.8°F14.9°C 96% 3.2 mph SW5.1 kmh SW 5.6 mph9.0 kmh 29.92 in1013.2 mb 0.00 in0.0 mm 0.00 in0.0 mm 0.00 in0.0 mm
07:55 PM 59.7°F15.4°C 58.6°F14.8°C 96% 3.5 mph SSW5.6 kmh SSW 6.5 mph10.5 kmh 29.92 in1013.2 mb 0.00 in0.0 mm 0.00 in0.0 mm 0.00 in0.0 mm
08:00 PM -- -- - 2.9 mph WSW4.7 kmh WSW 6.3 mph10.1 kmh -- 0.00 in0.0 mm 0.00 in0.0 mm 0.00 in0.0 mm
08:05 PM -- -- - 3.2 mph WSW5.1 kmh WSW 5.4 mph8.7 kmh -- 0.00 in0.0 mm 0.00 in0.0 mm 0.00 in0.0 mm
08:10 PM 59.5°F15.3°C 58.7°F14.8°C 97% 4.5 mph WSW7.2 kmh WSW 8.7 mph14.0 kmh 29.89 in1012.2 mb 0.00 in0.0 mm 0.00 in0.0 mm 0.00 in0.0 mm
08:15 PM 59.7°F15.4°C 58.9°F14.9°C 97% 4.6 mph S7.4 kmh S 6.3 mph10.1 kmh 29.89 in1012.2 mb 0.00 in0.0 mm 0.00 in0.0 mm 0.00 in0.0 mm
08:20 PM 59.7°F15.4°C 58.9°F14.9°C 97% 3.1 mph SSW5.0 kmh SSW 5.1 mph8.2 kmh 29.91 in1012.9 mb 0.00 in0.0 mm 0.00 in0.0 mm 0.00 in0.0 mm
08:25 PM 59.7°F15.4°C 58.9°F14.9°C 97% 4.4 mph SW7.1 kmh SW 7.6 mph12.2 kmh 29.92 in1013.2 mb 0.00 in0.0 mm 0.00 in0.0 mm 0.00 in0.0 mm
08:30 PM 59.7°F15.4°C 58.9°F14.9°C 97% 3.7 mph SW6.0 kmh SW 5.4 mph8.7 kmh 29.92 in1013.2 mb 0.00 in0.0 mm 0.00 in0.0 mm 0.00 in0.0 mm
08:35 PM 59.7°F15.4°C 58.9°F14.9°C 97% 2.7 mph WSW4.3 kmh WSW 6.7 mph10.8 kmh 29.90 in1012.5 mb 0.00 in0.0 mm 0.00 in0.0 mm 0.00 in0.0 mm
08:40 PM 59.7°F15.4°C 58.9°F14.9°C 97% 3.2 mph SW5.1 kmh SW 6.0 mph9.7 kmh 29.89 in1012.2 mb 0.00 in0.0 mm 0.00 in0.0 mm 0.00 in0.0 mm
08:45 PM 59.9°F15.5°C 59.0°F15.0°C 97% 2.4 mph SW3.9 kmh SW 6.3 mph10.1 kmh 29.89 in1012.2 mb 0.00 in0.0 mm 0.00 in0.0 mm 0.00 in0.0 mm
08:50 PM 60.1°F15.6°C 59.2°F15.1°C 97% 2.7 mph SW4.3 kmh SW 7.6 mph12.2 kmh 29.87 in1011.5 mb 0.00 in0.0 mm 0.00 in0.0 mm 0.00 in0.0 mm
08:55 PM 60.3°F15.7°C 59.7°F15.4°C 98% 3.8 mph S6.1 kmh S 7.6 mph12.2 kmh 29.86 in1011.2 mb 0.00 in0.0 mm 0.00 in0.0 mm 0.00 in0.0 mm
09:00 PM 60.4°F15.8°C 59.9°F15.5°C 98% 3.8 mph SW6.1 kmh SW 6.3 mph10.1 kmh 29.86 in1011.2 mb 0.00 in0.0 mm 0.00 in0.0 mm 0.00 in0.0 mm
09:05 PM 60.6°F15.9°C 60.1°F15.6°C 98% 3.3 mph S5.3 kmh S 7.8 mph12.6 kmh 29.86 in1011.2 mb 0.00 in0.0 mm 0.00 in0.0 mm 0.00 in0.0 mm
09:10 PM 60.6°F15.9°C 60.1°F15.6°C 98% 3.7 mph SW6.0 kmh SW 6.7 mph10.8 kmh 29.86 in1011.2 mb 0.00 in0.0 mm 0.00 in0.0 mm 0.00 in0.0 mm
09:15 PM 60.8°F16.0°C 60.2°F15.7°C 98% 4.1 mph SW6.6 kmh SW 6.7 mph10.8 kmh 29.86 in1011.2 mb 0.00 in0.0 mm 0.00 in0.0 mm 0.00 in0.0 mm
09:20 PM 60.8°F16.0°C 59.9°F15.5°C 97% 3.8 mph SW6.1 kmh SW 9.8 mph15.8 kmh 29.88 in1011.9 mb 0.00 in0.0 mm 0.00 in0.0 mm 0.00 in0.0 mm
09:25 PM 60.8°F16.0°C 59.9°F15.5°C 97% 3.4 mph WSW5.5 kmh WSW 6.5 mph10.5 kmh 29.89 in1012.2 mb 0.00 in0.0 mm 0.00 in0.0 mm 0.00 in0.0 mm
09:30 PM -- -- - - N N -- -- 0.00 in0.0 mm 0.00 in0.0 mm 0.00 in0.0 mm
09:35 PM 60.8°F16.0°C 59.9°F15.5°C 97% 2.5 mph WSW4.0 kmh WSW 5.1 mph8.2 kmh 29.89 in1012.2 mb 0.00 in0.0 mm 0.00 in0.0 mm 0.00 in0.0 mm
09:40 PM -- -- - 4.1 mph SW6.6 kmh SW 8.5 mph13.7 kmh -- 0.00 in0.0 mm 0.00 in0.0 mm 0.00 in0.0 mm
09:45 PM 60.8°F16.0°C 59.9°F15.5°C 97% 4.1 mph S6.6 kmh S 6.9 mph11.1 kmh 29.89 in1012.2 mb 0.00 in0.0 mm 0.00 in0.0 mm 0.00 in0.0 mm
09:50 PM 60.8°F16.0°C 59.9°F15.5°C 97% 2.8 mph W4.5 kmh W 4.5 mph7.2 kmh 29.89 in1012.2 mb 0.00 in0.0 mm 0.00 in0.0 mm 0.00 in0.0 mm
09:55 PM 61.0°F16.1°C 60.1°F15.6°C 97% 3.5 mph S5.6 kmh S 7.6 mph12.2 kmh 29.89 in1012.2 mb 0.00 in0.0 mm 0.00 in0.0 mm 0.00 in0.0 mm
10:00 PM 61.0°F16.1°C 60.1°F15.6°C 97% 3.9 mph SW6.3 kmh SW 6.7 mph10.8 kmh 29.89 in1012.2 mb 0.00 in0.0 mm 0.00 in0.0 mm 0.00 in0.0 mm
10:05 PM 61.0°F16.1°C 60.1°F15.6°C 97% 3.9 mph SSW6.3 kmh SSW 6.3 mph10.1 kmh 29.87 in1011.5 mb 0.00 in0.0 mm 0.00 in0.0 mm 0.00 in0.0 mm
10:10 PM 61.0°F16.1°C 60.1°F15.6°C 97% 4.1 mph S6.6 kmh S 7.4 mph11.9 kmh 29.86 in1011.2 mb 0.00 in0.0 mm 0.00 in0.0 mm 0.00 in0.0 mm
10:15 PM 61.0°F16.1°C 60.1°F15.6°C 97% 3.6 mph S5.8 kmh S 9.4 mph15.1 kmh 29.86 in1011.2 mb 0.00 in0.0 mm 0.00 in0.0 mm 0.00 in0.0 mm
10:20 PM 61.0°F16.1°C 60.1°F15.6°C 97% 4.9 mph S7.9 kmh S 8.7 mph14.0 kmh 29.86 in1011.2 mb 0.00 in0.0 mm 0.00 in0.0 mm 0.00 in0.0 mm
10:25 PM 61.0°F16.1°C 60.1°F15.6°C 97% 5.0 mph S8.0 kmh S 8.1 mph13.0 kmh 29.86 in1011.2 mb 0.00 in0.0 mm 0.00 in0.0 mm 0.00 in0.0 mm
10:30 PM 61.2°F16.2°C 60.3°F15.7°C 97% 4.3 mph S6.9 kmh S 7.8 mph12.6 kmh 29.86 in1011.2 mb 0.00 in0.0 mm 0.00 in0.0 mm 0.00 in0.0 mm
10:35 PM 61.2°F16.2°C 60.3°F15.7°C 97% 3.7 mph ESE6.0 kmh ESE 10.5 mph16.9 kmh 29.86 in1011.2 mb 0.00 in0.0 mm 0.00 in0.0 mm 0.00 in0.0 mm
10:40 PM 61.2°F16.2°C 60.1°F15.6°C 96% 4.5 mph SSW7.2 kmh SSW 8.3 mph13.4 kmh 29.86 in1011.2 mb 0.00 in0.0 mm 0.00 in0.0 mm 0.00 in0.0 mm
10:45 PM 61.2°F16.2°C 60.1°F15.6°C 96% 5.3 mph S8.5 kmh S 11.2 mph18.0 kmh 29.86 in1011.2 mb 0.00 in0.0 mm 0.00 in0.0 mm 0.00 in0.0 mm
10:50 PM 61.3°F16.3°C 60.2°F15.7°C 96% 6.8 mph SSW10.9 kmh SSW 10.5 mph16.9 kmh 29.86 in1011.2 mb 0.00 in0.0 mm 0.00 in0.0 mm 0.00 in0.0 mm
10:55 PM 61.3°F16.3°C 60.2°F15.7°C 96% 4.3 mph SSE6.9 kmh SSE 8.5 mph13.7 kmh 29.86 in1011.2 mb 0.00 in0.0 mm 0.00 in0.0 mm 0.00 in0.0 mm
11:00 PM 61.3°F16.3°C 60.2°F15.7°C 96% 4.6 mph SW7.4 kmh SW 8.9 mph14.3 kmh 29.86 in1011.2 mb 0.00 in0.0 mm 0.00 in0.0 mm 0.00 in0.0 mm
11:05 PM 61.3°F16.3°C 60.2°F15.7°C 96% 4.3 mph SSW6.9 kmh SSW 7.8 mph12.6 kmh 29.86 in1011.2 mb 0.00 in0.0 mm 0.00 in0.0 mm 0.00 in0.0 mm
11:10 PM 61.3°F16.3°C 60.5°F15.8°C 97% 5.1 mph SSW8.2 kmh SSW 11.0 mph17.7 kmh 29.86 in1011.2 mb 0.00 in0.0 mm 0.00 in0.0 mm 0.00 in0.0 mm
11:15 PM 61.3°F16.3°C 60.5°F15.8°C 97% 5.1 mph SW8.2 kmh SW 8.9 mph14.3 kmh 29.86 in1011.2 mb 0.00 in0.0 mm 0.00 in0.0 mm 0.00 in0.0 mm
11:20 PM 61.3°F16.3°C 60.3°F15.7°C 96% 4.2 mph SW6.8 kmh SW 7.6 mph12.2 kmh 29.84 in1010.5 mb 0.00 in0.0 mm 0.00 in0.0 mm 0.00 in0.0 mm
11:25 PM 61.3°F16.3°C 60.2°F15.7°C 96% 4.4 mph SSW7.1 kmh SSW 8.7 mph14.0 kmh 29.83 in1010.2 mb 0.00 in0.0 mm 0.00 in0.0 mm 0.00 in0.0 mm
11:30 PM 61.3°F16.3°C 60.2°F15.7°C 96% 4.6 mph S7.4 kmh S 5.8 mph9.3 kmh 29.83 in1010.2 mb 0.00 in0.0 mm 0.00 in0.0 mm 0.00 in0.0 mm
11:35 PM 61.5°F16.4°C 60.3°F15.7°C 96% 4.3 mph SW6.9 kmh SW 8.3 mph13.4 kmh 29.83 in1010.2 mb 0.00 in0.0 mm 0.00 in0.0 mm 0.00 in0.0 mm
11:40 PM 61.5°F16.4°C 60.4°F15.8°C 96% 4.1 mph S6.6 kmh S 8.3 mph13.4 kmh 29.83 in1010.2 mb 0.00 in0.0 mm 0.00 in0.0 mm 0.00 in0.0 mm
11:45 PM 61.5°F16.4°C 60.4°F15.8°C 96% 4.8 mph SSW7.7 kmh SSW 7.8 mph12.6 kmh 29.83 in1010.2 mb 0.00 in0.0 mm 0.00 in0.0 mm 0.00 in0.0 mm
11:50 PM 61.5°F16.4°C 60.4°F15.8°C 96% 5.3 mph S8.5 kmh S 9.2 mph14.8 kmh 29.81 in1009.5 mb 0.00 in0.0 mm 0.00 in0.0 mm 0.00 in0.0 mm
11:55 PM 61.5°F16.4°C 60.4°F15.8°C 96% 4.3 mph SW6.9 kmh SW 6.0 mph9.7 kmh 29.80 in1009.1 mb 0.00 in0.0 mm 0.00 in0.0 mm 0.00 in0.0 mm